Time,TemperatureF,DewpointF,PressureIn,WindDirection,WindDirectionDegrees,WindSpeedMPH,WindSpeedGustMPH,Humidity,HourlyPrecipIn,Conditions,Clouds,dailyrainin,SolarRadiationWatts/m^2,SoftwareType,DateUTC
2013-04-08 00:00:00,43.0,37.6,29.84,ESE,102,0.0,5.0,81,0.00,,---,0.00,0.00,VWS V14.01,2013-04-08 05:00:00,
2013-04-08 00:02:00,42.9,37.5,29.84,East,100,5.0,5.0,81,0.00,,---,0.00,0.00,VWS V14.01,2013-04-08 05:02:00,
2013-04-08 00:07:00,42.9,37.5,29.84,ENE,78,3.0,7.0,81,0.00,,---,0.00,0.00,VWS V14.01,2013-04-08 05:07:00,
2013-04-08 00:12:00,42.7,37.3,29.84,SE,137,4.0,8.0,81,0.00,,---,0.00,0.00,VWS V14.01,2013-04-08 05:12:00,
2013-04-08 00:17:00,42.5,37.1,29.83,ENE,78,5.0,8.0,81,0.00,,---,0.00,0.00,VWS V14.01,2013-04-08 05:17:00,
2013-04-08 00:22:00,42.3,36.9,29.82,East,100,3.0,8.0,81,0.00,,---,0.00,0.00,VWS V14.01,2013-04-08 05:22:00,
2013-04-08 00:27:00,42.0,36.6,29.82,East,86,2.0,8.0,81,0.00,,---,0.00,0.00,VWS V14.01,2013-04-08 05:27:00,
2013-04-08 00:32:00,41.8,36.7,29.83,ESE,107,1.0,8.0,82,0.00,,---,0.00,0.00,VWS V14.01,2013-04-08 05:32:00,
2013-04-08 00:37:00,41.6,36.5,29.83,East,92,2.0,8.0,82,0.00,,---,0.00,0.00,VWS V14.01,2013-04-08 05:37:00,
2013-04-08 00:42:00,41.4,36.3,29.83,East,100,3.0,8.0,82,0.00,,---,0.00,0.00,VWS V14.01,2013-04-08 05:42:00,
2013-04-08 00:47:00,41.3,36.2,29.82,East,90,1.0,8.0,82,0.00,,---,0.00,0.00,VWS V14.01,2013-04-08 05:47:00,
2013-04-08 00:52:00,41.1,36.0,29.82,ENE,66,2.0,8.0,82,0.00,,---,0.00,0.00,VWS V14.01,2013-04-08 05:52:00,
2013-04-08 00:57:00,41.0,35.9,29.82,ESE,105,3.0,9.0,82,0.00,,---,0.00,0.00,VWS V14.01,2013-04-08 05:57:00,
2013-04-08 01:00:00,40.9,35.8,29.82,East,99,3.0,9.0,82,0.00,,---,0.00,0.00,VWS V14.01,2013-04-08 06:00:00,
2013-04-08 01:02:00,40.8,35.7,29.82,East,98,1.0,5.0,82,0.00,,---,0.00,0.00,VWS V14.01,2013-04-08 06:02:00,
2013-04-08 01:07:00,40.7,35.6,29.82,East,83,0.0,6.0,82,0.00,,---,0.00,0.00,VWS V14.01,2013-04-08 06:07:00,
2013-04-08 01:12:00,40.6,35.5,29.82,East,80,2.0,7.0,82,0.00,,---,0.00,0.00,VWS V14.01,2013-04-08 06:12:00,
2013-04-08 01:17:00,40.6,35.5,29.82,East,90,2.0,7.0,82,0.00,,---,0.00,0.00,VWS V14.01,2013-04-08 06:17:00,
2013-04-08 01:22:00,40.5,35.1,29.82,ESE,107,2.0,8.0,81,0.00,,---,0.00,0.00,VWS V14.01,2013-04-08 06:22:00,
2013-04-08 01:27:00,40.4,35.3,29.82,ESE,105,4.0,8.0,82,0.00,,---,0.00,0.00,VWS V14.01,2013-04-08 06:27:00,
2013-04-08 01:32:00,40.4,35.0,29.82,ESE,113,1.0,8.0,81,0.00,,---,0.00,0.00,VWS V14.01,2013-04-08 06:32:00,
2013-04-08 01:37:00,40.3,34.9,29.82,East,94,1.0,8.0,81,0.00,,---,0.00,0.00,VWS V14.01,2013-04-08 06:37:00,
2013-04-08 01:42:00,40.3,34.9,29.82,SSE,161,2.0,8.0,81,0.00,,---,0.00,0.00,VWS V14.01,2013-04-08 06:42:00,
2013-04-08 01:47:00,40.3,34.9,29.82,ESE,118,3.0,8.0,81,0.00,,---,0.00,0.00,VWS V14.01,2013-04-08 06:47:00,
2013-04-08 01:52:00,40.2,34.8,29.82,East,85,2.0,8.0,81,0.00,,---,0.00,0.00,VWS V14.01,2013-04-08 06:52:00,
2013-04-08 01:57:00,40.2,34.8,29.81,ESE,111,4.0,8.0,81,0.00,,---,0.00,0.00,VWS V14.01,2013-04-08 06:57:00,
2013-04-08 02:00:00,40.2,34.8,29.81,ESE,120,0.0,8.0,81,0.00,,---,0.00,0.00,VWS V14.01,2013-04-08 07:00:00,
2013-04-08 02:02:00,40.2,34.8,29.81,ESE,112,2.0,3.0,81,0.00,,---,0.00,0.00,VWS V14.01,2013-04-08 07:02:00,
2013-04-08 02:07:00,40.1,34.8,29.81,ESE,107,1.0,3.0,81,0.00,,---,0.00,0.00,VWS V14.01,2013-04-08 07:07:00,
2013-04-08 02:12:00,40.1,34.8,29.80,ESE,115,1.0,6.0,81,0.00,,---,0.00,0.00,VWS V14.01,2013-04-08 07:12:00,
2013-04-08 02:17:00,40.1,34.8,29.80,East,86,0.0,7.0,81,0.00,,---,0.00,0.00,VWS V14.01,2013-04-08 07:17:00,
2013-04-08 02:22:00,40.0,34.7,29.80,East,94,0.0,7.0,81,0.00,,---,0.00,0.00,VWS V14.01,2013-04-08 07:22:00,
2013-04-08 02:27:00,40.0,34.7,29.79,East,90,2.0,7.0,81,0.00,,---,0.00,0.00,VWS V14.01,2013-04-08 07:27:00,
2013-04-08 02:32:00,39.9,34.5,29.78,NE,42,2.0,7.0,81,0.00,,---,0.00,0.00,VWS V14.01,2013-04-08 07:32:00,
2013-04-08 02:37:00,39.9,34.5,29.78,ESE,103,1.0,7.0,81,0.00,,---,0.00,0.00,VWS V14.01,2013-04-08 07:37:00,
2013-04-08 02:42:00,39.9,34.5,29.78,East,84,1.0,7.0,81,0.00,,---,0.00,0.00,VWS V14.01,2013-04-08 07:42:00,
2013-04-08 02:47:00,39.8,34.5,29.78,East,88,3.0,7.0,81,0.00,,---,0.00,0.00,VWS V14.01,2013-04-08 07:47:00,
2013-04-08 02:52:00,39.8,34.5,29.77,East,82,6.0,7.0,81,0.00,,---,0.00,0.00,VWS V14.01,2013-04-08 07:52:00,
2013-04-08 02:57:00,39.7,34.0,29.78,ESE,114,2.0,7.0,80,0.00,,---,0.00,0.00,VWS V14.01,2013-04-08 07:57:00,
2013-04-08 03:00:00,39.7,34.0,29.77,ESE,119,3.0,7.0,80,0.00,,---,0.00,0.00,VWS V14.01,2013-04-08 08:00:00,
2013-04-08 03:02:00,39.6,34.3,29.77,East,90,3.0,5.0,81,0.00,,---,0.00,0.00,VWS V14.01,2013-04-08 08:02:00,
2013-04-08 03:07:00,39.6,34.3,29.77,East,90,2.0,7.0,81,0.00,,---,0.00,0.00,VWS V14.01,2013-04-08 08:07:00,
2013-04-08 03:12:00,39.5,34.2,29.76,East,80,3.0,7.0,81,0.00,,---,0.00,0.00,VWS V14.01,2013-04-08 08:12:00,
2013-04-08 03:17:00,39.5,34.2,29.76,NE,53,3.0,7.0,81,0.00,,---,0.00,0.00,VWS V14.01,2013-04-08 08:17:00,
2013-04-08 03:22:00,39.4,34.1,29.76,ENE,68,2.0,7.0,81,0.00,,---,0.00,0.00,VWS V14.01,2013-04-08 08:22:00,
2013-04-08 03:27:00,39.4,34.1,29.76,ENE,67,2.0,7.0,81,0.00,,---,0.00,0.00,VWS V14.01,2013-04-08 08:27:00,
2013-04-08 03:32:00,39.4,34.1,29.76,ENE,57,7.0,7.0,81,0.00,,---,0.00,0.00,VWS V14.01,2013-04-08 08:32:00,
2013-04-08 03:37:00,39.4,34.1,29.75,NE,54,2.0,7.0,81,0.00,,---,0.00,0.00,VWS V14.01,2013-04-08 08:37:00,
2013-04-08 03:42:00,39.4,34.1,29.75,NE,55,2.0,7.0,81,0.00,,---,0.00,0.00,VWS V14.01,2013-04-08 08:42:00,
2013-04-08 03:47:00,39.4,34.1,29.75,ENE,64,2.0,7.0,81,0.00,,---,0.00,0.00,VWS V14.01,2013-04-08 08:47:00,
2013-04-08 03:52:00,39.4,34.1,29.75,ENE,57,0.0,7.0,81,0.00,,---,0.00,0.00,VWS V14.01,2013-04-08 08:52:00,
2013-04-08 03:57:00,39.5,34.2,29.75,ESE,104,1.0,7.0,81,0.00,,---,0.00,0.00,VWS V14.01,2013-04-08 08:57:00,
2013-04-08 04:00:00,39.5,34.2,29.75,East,94,0.0,7.0,81,0.00,,---,0.00,0.00,VWS V14.01,2013-04-08 09:00:00,
2013-04-08 04:02:00,39.5,34.2,29.75,East,96,2.0,3.0,81,0.00,,---,0.00,0.00,VWS V14.01,2013-04-08 09:02:00,
2013-04-08 04:07:00,39.6,34.3,29.75,ESE,113,1.0,5.0,81,0.00,,---,0.00,0.00,VWS V14.01,2013-04-08 09:07:00,
2013-04-08 04:12:00,39.7,34.4,29.74,East,94,0.0,5.0,81,0.00,,---,0.00,0.00,VWS V14.01,2013-04-08 09:12:00,
2013-04-08 04:17:00,39.8,34.5,29.74,ENE,78,0.0,6.0,81,0.00,,---,0.00,0.00,VWS V14.01,2013-04-08 09:17:00,
2013-04-08 04:22:00,39.9,34.5,29.73,ENE,74,3.0,6.0,81,0.00,,---,0.00,0.00,VWS V14.01,2013-04-08 09:22:00,
2013-04-08 04:27:00,39.9,34.5,29.73,ENE,74,2.0,6.0,81,0.00,,---,0.00,0.00,VWS V14.01,2013-04-08 09:27:00,
2013-04-08 04:32:00,40.0,34.3,29.73,ENE,59,4.0,6.0,80,0.00,,---,0.00,0.00,VWS V14.01,2013-04-08 09:32:00,
2013-04-08 04:37:00,40.0,34.3,29.72,ENE,57,4.0,7.0,80,0.00,,---,0.00,0.00,VWS V14.01,2013-04-08 09:37:00,
2013-04-08 04:42:00,40.0,34.3,29.72,NE,50,3.0,10.0,80,0.00,,---,0.00,0.00,VWS V14.01,2013-04-08 09:42:00,
2013-04-08 04:47:00,40.0,34.3,29.72,NE,54,5.0,10.0,80,0.00,,---,0.00,0.00,VWS V14.01,2013-04-08 09:47:00,
2013-04-08 04:52:00,39.9,34.2,29.72,NE,50,2.0,10.0,80,0.00,,---,0.00,0.00,VWS V14.01,2013-04-08 09:52:00,
2013-04-08 04:57:00,39.9,34.5,29.72,ENE,69,3.0,10.0,81,0.00,,---,0.00,0.00,VWS V14.01,2013-04-08 09:57:00,
2013-04-08 05:00:00,39.9,34.5,29.72,ENE,76,4.0,10.0,81,0.00,,---,0.00,0.00,VWS V14.01,2013-04-08 10:00:00,
2013-04-08 05:02:00,40.0,34.7,29.71,ENE,63,3.0,7.0,81,0.00,,---,0.00,0.00,VWS V14.01,2013-04-08 10:02:00,
2013-04-08 05:07:00,40.0,34.7,29.71,ENE,60,4.0,7.0,81,0.00,,---,0.00,0.00,VWS V14.01,2013-04-08 10:07:00,
2013-04-08 05:12:00,40.1,34.8,29.72,ENE,72,2.0,7.0,81,0.00,,---,0.00,0.00,VWS V14.01,2013-04-08 10:12:00,
2013-04-08 05:17:00,40.2,34.8,29.72,East,96,2.0,7.0,81,0.00,,---,0.00,0.00,VWS V14.01,2013-04-08 10:17:00,
2013-04-08 05:22:00,40.3,34.9,29.71,East,81,0.0,7.0,81,0.00,,---,0.00,0.00,VWS V14.01,2013-04-08 10:22:00,
2013-04-08 05:27:00,40.4,35.0,29.71,East,81,1.0,7.0,81,0.00,,---,0.00,0.00,VWS V14.01,2013-04-08 10:27:00,
2013-04-08 05:32:00,40.5,35.1,29.71,ENE,70,2.0,7.0,81,0.00,,---,0.00,0.00,VWS V14.01,2013-04-08 10:32:00,
2013-04-08 05:37:00,40.6,34.9,29.72,ENE,71,0.0,7.0,80,0.00,,---,0.00,0.00,VWS V14.01,2013-04-08 10:37:00,
2013-04-08 05:42:00,40.6,34.9,29.72,East,84,1.0,7.0,80,0.00,,---,0.00,0.00,VWS V14.01,2013-04-08 10:42:00,
2013-04-08 05:47:00,40.7,35.0,29.72,East,84,0.0,7.0,80,0.00,,---,0.00,0.00,VWS V14.01,2013-04-08 10:47:00,
2013-04-08 05:52:00,40.8,35.1,29.72,East,84,2.0,7.0,80,0.00,,---,0.00,0.00,VWS V14.01,2013-04-08 10:52:00,
2013-04-08 05:57:00,40.9,35.2,29.71,East,84,2.0,7.0,80,0.00,,---,0.00,0.00,VWS V14.01,2013-04-08 10:57:00,
2013-04-08 06:00:00,40.9,35.2,29.71,East,84,2.0,7.0,80,0.00,,---,0.00,0.00,VWS V14.01,2013-04-08 11:00:00,
2013-04-08 06:02:00,40.9,35.2,29.71,East,84,2.0,3.0,80,0.00,,---,0.00,0.00,VWS V14.01,2013-04-08 11:02:00,
2013-04-08 06:07:00,41.0,35.3,29.71,East,84,2.0,3.0,80,0.00,,---,0.00,0.00,VWS V14.01,2013-04-08 11:07:00,
2013-04-08 06:12:00,41.1,35.4,29.71,East,84,2.0,3.0,80,0.00,,---,0.00,0.00,VWS V14.01,2013-04-08 11:12:00,
2013-04-08 06:17:00,41.1,35.4,29.71,East,84,1.0,3.0,80,0.00,,---,0.00,0.00,VWS V14.01,2013-04-08 11:17:00,
2013-04-08 06:22:00,41.2,35.5,29.71,East,84,0.0,3.0,80,0.00,,---,0.00,0.00,VWS V14.01,2013-04-08 11:22:00,
2013-04-08 06:27:00,41.2,35.5,29.71,East,84,0.0,3.0,80,0.00,,---,0.00,0.00,VWS V14.01,2013-04-08 11:27:00,
2013-04-08 06:32:00,41.2,35.8,29.71,East,84,0.0,3.0,81,0.00,,---,0.00,0.00,VWS V14.01,2013-04-08 11:32:00,
2013-04-08 06:38:00,41.2,35.8,29.71,East,84,1.0,3.0,81,0.00,,---,0.00,0.00,VWS V14.01,2013-04-08 11:38:00,
2013-04-08 06:43:00,41.2,35.8,29.71,East,84,0.0,3.0,81,0.00,,---,0.00,0.00,VWS V14.01,2013-04-08 11:43:00,
2013-04-08 06:48:00,41.1,36.0,29.72,NNE,20,2.0,4.0,82,0.01,,---,0.01,0.00,VWS V14.01,2013-04-08 11:48:00,
2013-04-08 06:52:00,40.9,36.1,29.72,NNE,20,0.0,4.0,83,0.01,,---,0.01,0.00,VWS V14.01,2013-04-08 11:52:00,
2013-04-08 06:57:00,40.8,36.0,29.72,NNE,20,2.0,4.0,83,0.01,,---,0.01,5.00,VWS V14.01,2013-04-08 11:57:00,
2013-04-08 07:00:00,40.7,36.0,29.72,NNE,20,2.0,4.0,83,0.01,,---,0.01,5.00,VWS V14.01,2013-04-08 12:00:00,
2013-04-08 07:03:00,40.6,36.2,29.72,NNE,20,3.0,3.0,84,0.01,,---,0.01,7.00,VWS V14.01,2013-04-08 12:03:00,
2013-04-08 07:08:00,40.5,36.0,29.72,NNE,20,4.0,4.0,84,0.01,,---,0.01,5.00,VWS V14.01,2013-04-08 12:08:00,
2013-04-08 07:13:00,40.4,36.0,29.71,North,5,1.0,4.0,84,0.01,,---,0.01,5.00,VWS V14.01,2013-04-08 12:13:00,
2013-04-08 07:18:00,40.4,36.3,29.72,North,5,0.0,4.0,85,0.01,,---,0.01,0.00,VWS V14.01,2013-04-08 12:18:00,
2013-04-08 07:23:00,40.3,36.2,29.71,North,5,3.0,4.0,85,0.01,,---,0.01,7.00,VWS V14.01,2013-04-08 12:23:00,
2013-04-08 07:28:00,40.3,36.2,29.71,NNE,23,2.0,5.0,85,0.01,,---,0.01,25.00,VWS V14.01,2013-04-08 12:28:00,
2013-04-08 07:33:00,40.3,36.2,29.72,ENE,66,0.0,5.0,85,0.01,,---,0.01,9.00,VWS V14.01,2013-04-08 12:33:00,
2013-04-08 07:38:00,40.3,36.5,29.72,ENE,66,1.0,5.0,86,0.01,,---,0.01,12.00,VWS V14.01,2013-04-08 12:38:00,
2013-04-08 07:43:00,40.2,36.1,29.72,NNE,22,1.0,5.0,85,0.01,,---,0.01,18.00,VWS V14.01,2013-04-08 12:43:00,
2013-04-08 07:48:00,40.3,36.5,29.72,NNE,22,0.0,5.0,86,0.01,,---,0.01,40.00,VWS V14.01,2013-04-08 12:48:00,
2013-04-08 07:53:00,40.3,36.5,29.72,NNE,22,2.0,5.0,86,0.01,,---,0.01,30.00,VWS V14.01,2013-04-08 12:53:00,
2013-04-08 07:58:00,40.4,36.5,29.73,NNE,22,1.0,5.0,86,0.01,,---,0.01,21.00,VWS V14.01,2013-04-08 12:58:00,
2013-04-08 08:00:00,40.4,36.5,29.73,NNE,22,1.0,5.0,86,0.01,,---,0.01,19.00,VWS V14.01,2013-04-08 13:00:00,
2013-04-08 08:03:00,40.4,36.5,29.73,NNE,23,0.0,3.0,86,0.00,,---,0.01,16.00,VWS V14.01,2013-04-08 13:03:00,
2013-04-08 08:08:00,40.4,36.5,29.73,NE,37,2.0,3.0,86,0.00,,---,0.01,12.00,VWS V14.01,2013-04-08 13:08:00,
2013-04-08 08:13:00,40.4,36.5,29.73,NE,37,0.0,3.0,86,0.00,,---,0.01,21.00,VWS V14.01,2013-04-08 13:13:00,
2013-04-08 08:18:00,40.4,36.8,29.73,NE,37,1.0,3.0,87,0.01,,---,0.02,32.00,VWS V14.01,2013-04-08 13:18:00,
2013-04-08 08:23:00,40.4,36.8,29.73,NE,37,1.0,3.0,87,0.01,,---,0.02,35.00,VWS V14.01,2013-04-08 13:23:00,
2013-04-08 08:28:00,40.4,36.8,29.72,NE,37,0.0,3.0,87,0.01,,---,0.02,28.00,VWS V14.01,2013-04-08 13:28:00,
2013-04-08 08:33:00,40.4,37.1,29.73,NE,37,0.0,3.0,88,0.01,,---,0.02,30.00,VWS V14.01,2013-04-08 13:33:00,
2013-04-08 08:38:00,40.4,37.1,29.72,NE,37,0.0,3.0,88,0.01,,---,0.02,33.00,VWS V14.01,2013-04-08 13:38:00,
2013-04-08 08:43:00,40.3,37.0,29.72,NE,37,0.0,3.0,88,0.02,,---,0.03,35.00,VWS V14.01,2013-04-08 13:43:00,
2013-04-08 08:48:00,40.2,37.2,29.72,NE,37,1.0,3.0,89,0.02,,---,0.03,40.00,VWS V14.01,2013-04-08 13:48:00,
2013-04-08 08:53:00,40.1,37.1,29.71,NE,37,2.0,3.0,89,0.02,,---,0.03,39.00,VWS V14.01,2013-04-08 13:53:00,
2013-04-08 08:58:00,39.9,36.9,29.71,NE,41,2.0,4.0,89,0.02,,---,0.03,56.00,VWS V14.01,2013-04-08 13:58:00,
2013-04-08 09:00:00,39.9,36.9,29.71,NE,41,1.0,4.0,89,0.02,,---,0.03,65.00,VWS V14.01,2013-04-08 14:00:00,
2013-04-08 09:03:00,39.8,36.8,29.71,NE,50,2.0,4.0,89,0.02,,---,0.03,77.00,VWS V14.01,2013-04-08 14:03:00,
2013-04-08 09:08:00,39.8,37.1,29.70,NE,50,3.0,4.0,90,0.02,,---,0.03,83.00,VWS V14.01,2013-04-08 14:08:00,
2013-04-08 09:13:00,39.7,37.0,29.70,ENE,69,2.0,4.0,90,0.02,,---,0.03,84.00,VWS V14.01,2013-04-08 14:13:00,
2013-04-08 09:18:00,39.8,37.1,29.69,ENE,69,2.0,4.0,90,0.02,,---,0.03,90.00,VWS V14.01,2013-04-08 14:18:00,
2013-04-08 09:23:00,39.8,37.1,29.69,NE,52,2.0,7.0,90,0.03,,---,0.04,95.00,VWS V14.01,2013-04-08 14:23:00,
2013-04-08 09:28:00,39.6,36.9,29.68,ENE,57,3.0,10.0,90,0.03,,---,0.04,102.00,VWS V14.01,2013-04-08 14:28:00,
2013-04-08 09:33:00,39.6,37.2,29.68,NNE,28,2.0,10.0,91,0.03,,---,0.04,114.00,VWS V14.01,2013-04-08 14:33:00,
2013-04-08 09:38:00,39.7,37.3,29.67,NE,40,3.0,10.0,91,0.03,,---,0.04,128.00,VWS V14.01,2013-04-08 14:38:00,
2013-04-08 09:43:00,39.7,37.3,29.67,ENE,71,4.0,10.0,91,0.03,,---,0.04,146.00,VWS V14.01,2013-04-08 14:43:00,
2013-04-08 09:48:00,39.7,37.3,29.67,ENE,73,4.0,10.0,91,0.03,,---,0.04,169.00,VWS V14.01,2013-04-08 14:48:00,
2013-04-08 09:53:00,39.9,37.8,29.68,NE,36,2.0,10.0,92,0.03,,---,0.04,200.00,VWS V14.01,2013-04-08 14:53:00,
2013-04-08 09:58:00,40.3,38.2,29.69,NW,314,3.0,10.0,92,0.03,,---,0.04,139.00,VWS V14.01,2013-04-08 14:58:00,
2013-04-08 10:00:00,40.3,38.2,29.69,North,355,0.0,10.0,92,0.03,,---,0.04,127.00,VWS V14.01,2013-04-08 15:00:00,
2013-04-08 10:03:00,40.5,38.4,29.69,North,355,2.0,3.0,92,0.01,,---,0.04,128.00,VWS V14.01,2013-04-08 15:03:00,
2013-04-08 10:08:00,40.6,38.5,29.69,NE,52,3.0,5.0,92,0.01,,---,0.04,134.00,VWS V14.01,2013-04-08 15:08:00,
2013-04-08 10:13:00,40.6,38.5,29.69,NE,52,3.0,5.0,92,0.01,,---,0.04,244.00,VWS V14.01,2013-04-08 15:13:00,
2013-04-08 10:18:00,40.8,38.7,29.67,East,80,6.0,8.0,92,0.01,,---,0.04,308.00,VWS V14.01,2013-04-08 15:18:00,
2013-04-08 10:23:00,41.2,39.1,29.69,North,5,3.0,8.0,92,0.01,,---,0.04,352.00,VWS V14.01,2013-04-08 15:23:00,
2013-04-08 10:28:00,41.5,39.3,29.70,North,360,2.0,8.0,92,0.01,,---,0.04,272.00,VWS V14.01,2013-04-08 15:28:00,
2013-04-08 10:33:00,41.9,39.8,29.70,North,360,1.0,8.0,92,0.01,,---,0.04,311.00,VWS V14.01,2013-04-08 15:33:00,
2013-04-08 10:38:00,42.4,40.2,29.70,North,360,1.0,8.0,92,0.01,,---,0.04,320.00,VWS V14.01,2013-04-08 15:38:00,
2013-04-08 10:43:00,42.9,40.5,29.70,North,360,1.0,8.0,91,0.01,,---,0.04,352.00,VWS V14.01,2013-04-08 15:43:00,
2013-04-08 10:48:00,43.5,41.0,29.70,NE,38,1.0,8.0,91,0.01,,---,0.04,288.00,VWS V14.01,2013-04-08 15:48:00,
2013-04-08 10:53:00,43.8,41.1,29.71,North,5,2.0,8.0,90,0.01,,---,0.04,306.00,VWS V14.01,2013-04-08 15:53:00,
2013-04-08 10:58:00,43.9,41.2,29.72,North,5,2.0,8.0,90,0.01,,---,0.04,306.00,VWS V14.01,2013-04-08 15:58:00,
2013-04-08 11:00:00,44.0,41.3,29.72,North,5,2.0,8.0,90,0.01,,---,0.04,292.00,VWS V14.01,2013-04-08 16:00:00,
2013-04-08 11:03:00,44.4,41.4,29.72,NNE,19,2.0,3.0,89,0.00,,---,0.04,265.00,VWS V14.01,2013-04-08 16:03:00,
2013-04-08 11:08:00,44.6,41.3,29.73,ENE,65,2.0,3.0,88,0.00,,---,0.04,214.00,VWS V14.01,2013-04-08 16:08:00,
2013-04-08 11:13:00,44.9,41.3,29.72,ENE,65,2.0,3.0,87,0.00,,---,0.04,204.00,VWS V14.01,2013-04-08 16:13:00,
2013-04-08 11:18:00,45.1,41.5,29.72,ENE,65,2.0,3.0,87,0.00,,---,0.04,174.00,VWS V14.01,2013-04-08 16:18:00,
2013-04-08 11:23:00,45.3,41.1,29.72,ENE,65,1.0,3.0,85,0.00,,---,0.04,192.00,VWS V14.01,2013-04-08 16:23:00,
2013-04-08 11:28:00,45.2,40.7,29.72,NE,40,0.0,4.0,84,0.00,,---,0.04,225.00,VWS V14.01,2013-04-08 16:28:00,
2013-04-08 11:33:00,45.2,41.0,29.72,NNE,13,4.0,4.0,85,0.00,,---,0.04,223.00,VWS V14.01,2013-04-08 16:33:00,
2013-04-08 11:38:00,45.1,41.2,29.73,NNE,13,0.0,4.0,86,0.00,,---,0.04,241.00,VWS V14.01,2013-04-08 16:38:00,
2013-04-08 11:43:00,45.4,41.2,29.73,North,11,2.0,4.0,85,0.00,,---,0.04,287.00,VWS V14.01,2013-04-08 16:43:00,
2013-04-08 11:48:00,45.5,41.3,29.73,North,360,0.0,4.0,85,0.00,,---,0.04,327.00,VWS V14.01,2013-04-08 16:48:00,
2013-04-08 11:53:00,46.0,41.4,29.73,North,5,2.0,4.0,84,0.00,,---,0.04,329.00,VWS V14.01,2013-04-08 16:53:00,
2013-04-08 11:58:00,46.4,41.5,29.73,WNW,295,3.0,5.0,83,0.00,,---,0.04,383.00,VWS V14.01,2013-04-08 16:58:00,
2013-04-08 12:00:00,46.4,41.2,29.74,WNW,295,2.0,5.0,82,0.00,,---,0.04,381.00,VWS V14.01,2013-04-08 17:00:00,
2013-04-08 12:03:00,46.6,41.7,29.74,WSW,244,1.0,4.0,83,0.00,,---,0.04,362.00,VWS V14.01,2013-04-08 17:03:00,
2013-04-08 12:08:00,47.0,42.1,29.74,West,260,4.0,5.0,83,0.00,,---,0.04,378.00,VWS V14.01,2013-04-08 17:08:00,
2013-04-08 12:13:00,47.2,42.3,29.74,WSW,253,1.0,5.0,83,0.00,,---,0.04,403.00,VWS V14.01,2013-04-08 17:13:00,
2013-04-08 12:18:00,47.9,42.7,29.74,WSW,253,0.0,5.0,82,0.00,,---,0.04,329.00,VWS V14.01,2013-04-08 17:18:00,
2013-04-08 12:23:00,48.1,42.5,29.74,West,262,3.0,5.0,81,0.00,,---,0.04,388.00,VWS V14.01,2013-04-08 17:23:00,
2013-04-08 12:28:00,48.0,42.5,29.74,West,276,0.0,5.0,81,0.00,,---,0.04,406.00,VWS V14.01,2013-04-08 17:28:00,
2013-04-08 12:33:00,47.9,42.4,29.74,WSW,237,3.0,6.0,81,0.00,,---,0.04,462.00,VWS V14.01,2013-04-08 17:33:00,
2013-04-08 12:38:00,48.4,42.8,29.74,WSW,256,1.0,6.0,81,0.00,,---,0.04,441.00,VWS V14.01,2013-04-08 17:38:00,
2013-04-08 12:43:00,48.8,42.9,29.74,West,273,4.0,6.0,80,0.00,,---,0.04,436.00,VWS V14.01,2013-04-08 17:43:00,
2013-04-08 12:48:00,49.6,43.4,29.74,West,270,2.0,6.0,79,0.00,,---,0.04,531.00,VWS V14.01,2013-04-08 17:48:00,
2013-04-08 12:53:00,50.5,43.6,29.75,West,273,2.0,6.0,77,0.00,,---,0.04,752.00,VWS V14.01,2013-04-08 17:53:00,
2013-04-08 12:58:00,50.9,44.0,29.75,NNW,338,2.0,6.0,77,0.00,,---,0.04,944.00,VWS V14.01,2013-04-08 17:58:00,
2013-04-08 13:00:00,51.2,44.6,29.75,West,263,2.0,6.0,78,0.00,,---,0.04,944.00,VWS V14.01,2013-04-08 18:00:00,
2013-04-08 13:03:00,51.7,44.0,29.75,WSW,242,3.0,6.0,75,0.00,,---,0.04,854.00,VWS V14.01,2013-04-08 18:03:00,
2013-04-08 13:08:00,52.6,44.9,29.75,West,271,3.0,6.0,75,0.00,,---,0.04,925.00,VWS V14.01,2013-04-08 18:08:00,
2013-04-08 13:13:00,53.4,44.6,29.75,WSW,239,4.0,6.0,72,0.00,,---,0.04,874.00,VWS V14.01,2013-04-08 18:13:00,
2013-04-08 13:18:00,53.8,44.6,29.75,WNW,294,3.0,6.0,71,0.00,,---,0.04,870.00,VWS V14.01,2013-04-08 18:18:00,
2013-04-08 13:23:00,54.3,45.1,29.75,WSW,249,2.0,7.0,71,0.00,,---,0.04,874.00,VWS V14.01,2013-04-08 18:23:00,
2013-04-08 13:28:00,54.6,45.0,29.75,North,350,1.0,7.0,70,0.00,,---,0.04,872.00,VWS V14.01,2013-04-08 18:28:00,
2013-04-08 13:33:00,55.7,45.7,29.75,WNW,288,1.0,7.0,69,0.00,,---,0.04,928.00,VWS V14.01,2013-04-08 18:33:00,
2013-04-08 13:38:00,55.7,44.9,29.75,North,5,2.0,7.0,67,0.00,,---,0.04,513.00,VWS V14.01,2013-04-08 18:38:00,
2013-04-08 13:43:00,55.8,45.0,29.75,North,355,7.0,7.0,67,0.00,,---,0.04,682.00,VWS V14.01,2013-04-08 18:43:00,
2013-04-08 13:48:00,56.0,46.0,29.75,WNW,292,2.0,7.0,69,0.00,,---,0.04,875.00,VWS V14.01,2013-04-08 18:48:00,
2013-04-08 13:53:00,57.1,46.7,29.75,West,280,3.0,7.0,68,0.00,,---,0.04,657.00,VWS V14.01,2013-04-08 18:53:00,
2013-04-08 13:58:00,56.4,46.0,29.75,NW,325,3.0,7.0,68,0.00,,---,0.04,1042.00,VWS V14.01,2013-04-08 18:58:00,
2013-04-08 14:00:00,56.4,45.6,29.75,NW,325,4.0,7.0,67,0.00,,---,0.04,547.00,VWS V14.01,2013-04-08 19:00:00,
2013-04-08 14:03:00,58.3,47.4,29.75,WNW,293,3.0,4.0,67,0.00,,---,0.04,473.00,VWS V14.01,2013-04-08 19:03:00,
2013-04-08 14:08:00,57.6,46.7,29.75,WSW,255,3.0,6.0,67,0.00,,---,0.04,965.00,VWS V14.01,2013-04-08 19:08:00,
2013-04-08 14:13:00,58.0,46.3,29.75,WSW,254,2.0,6.0,65,0.00,,---,0.04,740.00,VWS V14.01,2013-04-08 19:13:00,
2013-04-08 14:18:00,58.4,46.3,29.75,WSW,246,4.0,6.0,64,0.00,,---,0.04,875.00,VWS V14.01,2013-04-08 19:18:00,
2013-04-08 14:23:00,57.8,46.1,29.75,NW,320,3.0,6.0,65,0.00,,---,0.04,520.00,VWS V14.01,2013-04-08 19:23:00,
2013-04-08 14:28:00,58.7,47.0,29.75,NNE,17,1.0,6.0,65,0.00,,---,0.04,680.00,VWS V14.01,2013-04-08 19:28:00,
2013-04-08 14:33:00,59.0,46.8,29.75,SSW,209,2.0,6.0,64,0.00,,---,0.04,849.00,VWS V14.01,2013-04-08 19:33:00,
2013-04-08 14:38:00,59.2,46.2,29.75,North,355,3.0,7.0,62,0.00,,---,0.04,919.00,VWS V14.01,2013-04-08 19:38:00,
2013-04-08 14:43:00,59.6,46.6,29.75,NW,319,4.0,7.0,62,0.00,,---,0.04,909.00,VWS V14.01,2013-04-08 19:43:00,
2013-04-08 14:48:00,59.3,46.7,29.75,WNW,294,3.0,7.0,63,0.00,,---,0.04,830.00,VWS V14.01,2013-04-08 19:48:00,
2013-04-08 14:53:00,60.8,48.6,29.75,West,264,4.0,7.0,64,0.00,,---,0.04,796.00,VWS V14.01,2013-04-08 19:53:00,
2013-04-08 14:58:00,60.5,47.0,29.75,WSW,254,0.0,7.0,61,0.00,,---,0.04,773.00,VWS V14.01,2013-04-08 19:58:00,
2013-04-08 15:00:00,60.6,47.5,29.75,WSW,254,0.0,7.0,62,0.00,,---,0.04,770.00,VWS V14.01,2013-04-08 20:00:00,
2013-04-08 15:03:00,61.3,46.9,29.75,WNW,298,0.0,3.0,59,0.00,,---,0.04,765.00,VWS V14.01,2013-04-08 20:03:00,
2013-04-08 15:08:00,62.3,47.3,29.75,NW,316,1.0,5.0,58,0.00,,---,0.04,758.00,VWS V14.01,2013-04-08 20:08:00,
2013-04-08 15:13:00,61.1,47.6,29.75,NNW,344,4.0,5.0,61,0.00,,---,0.04,742.00,VWS V14.01,2013-04-08 20:13:00,
2013-04-08 15:18:00,60.1,46.6,29.75,North,355,4.0,7.0,61,0.00,,---,0.04,724.00,VWS V14.01,2013-04-08 20:18:00,
2013-04-08 15:23:00,60.4,46.5,29.75,NNE,13,3.0,7.0,60,0.00,,---,0.04,703.00,VWS V14.01,2013-04-08 20:23:00,
2013-04-08 15:28:00,60.5,46.1,29.75,North,355,1.0,7.0,59,0.00,,---,0.04,691.00,VWS V14.01,2013-04-08 20:28:00,
2013-04-08 15:33:00,61.0,46.6,29.75,NNW,340,3.0,7.0,59,0.00,,---,0.04,675.00,VWS V14.01,2013-04-08 20:33:00,
2013-04-08 15:38:00,61.5,47.1,29.75,NNW,348,3.0,7.0,59,0.00,,---,0.04,666.00,VWS V14.01,2013-04-08 20:38:00,
2013-04-08 15:43:00,61.2,46.3,29.75,North,360,0.0,7.0,58,0.00,,---,0.04,652.00,VWS V14.01,2013-04-08 20:43:00,
2013-04-08 15:48:00,61.5,46.6,29.75,NNW,338,2.0,7.0,58,0.00,,---,0.04,654.00,VWS V14.01,2013-04-08 20:48:00,
2013-04-08 15:53:00,61.0,46.6,29.75,WSW,248,1.0,7.0,59,0.00,,---,0.04,691.00,VWS V14.01,2013-04-08 20:53:00,
2013-04-08 15:58:00,61.8,47.8,29.76,West,264,4.0,7.0,60,0.00,,---,0.04,756.00,VWS V14.01,2013-04-08 20:58:00,
2013-04-08 16:00:00,62.0,47.5,29.76,West,264,3.0,7.0,59,0.00,,---,0.04,728.00,VWS V14.01,2013-04-08 21:00:00,
2013-04-08 16:03:00,61.8,47.8,29.76,NNE,20,2.0,6.0,60,0.00,,---,0.04,728.00,VWS V14.01,2013-04-08 21:03:00,
2013-04-08 16:08:00,61.8,46.9,29.76,NW,308,2.0,6.0,58,0.00,,---,0.04,410.00,VWS V14.01,2013-04-08 21:08:00,
2013-04-08 16:13:00,61.2,46.8,29.76,NW,311,3.0,6.0,59,0.00,,---,0.04,501.00,VWS V14.01,2013-04-08 21:13:00,
2013-04-08 16:18:00,62.7,47.7,29.76,NE,42,4.0,6.0,58,0.00,,---,0.04,721.00,VWS V14.01,2013-04-08 21:18:00,
2013-04-08 16:23:00,62.2,47.3,29.77,North,11,1.0,6.0,58,0.00,,---,0.04,624.00,VWS V14.01,2013-04-08 21:23:00,
2013-04-08 16:28:00,63.2,47.3,29.77,NNW,331,1.0,6.0,56,0.00,,---,0.04,589.00,VWS V14.01,2013-04-08 21:28:00,
2013-04-08 16:33:00,62.3,46.0,29.77,NNE,24,4.0,9.0,55,0.00,,---,0.04,547.00,VWS V14.01,2013-04-08 21:33:00,
2013-04-08 16:38:00,61.4,46.0,29.78,NNE,20,4.0,9.0,57,0.00,,---,0.04,541.00,VWS V14.01,2013-04-08 21:38:00,
2013-04-08 16:44:00,61.4,46.0,29.78,NE,53,6.0,9.0,57,0.00,,---,0.04,578.00,VWS V14.01,2013-04-08 21:44:00,
2013-04-08 16:49:00,60.8,46.0,29.78,NNE,32,3.0,9.0,58,0.00,,---,0.04,475.00,VWS V14.01,2013-04-08 21:49:00,
2013-04-08 16:54:00,61.2,46.3,29.78,NE,34,6.0,9.0,58,0.00,,---,0.04,441.00,VWS V14.01,2013-04-08 21:54:00,
2013-04-08 16:59:00,60.9,46.0,29.78,NE,34,4.0,9.0,58,0.00,,---,0.04,415.00,VWS V14.01,2013-04-08 21:59:00,
2013-04-08 17:00:00,60.9,46.0,29.78,NE,34,4.0,9.0,58,0.00,,---,0.04,415.00,VWS V14.01,2013-04-08 22:00:00,
2013-04-08 17:04:00,60.7,45.8,29.79,NNE,31,3.0,4.0,58,0.00,,---,0.04,387.00,VWS V14.01,2013-04-08 22:04:00,
2013-04-08 17:09:00,60.0,46.1,29.79,North,5,3.0,4.0,60,0.00,,---,0.04,381.00,VWS V14.01,2013-04-08 22:09:00,
2013-04-08 17:14:00,59.8,45.9,29.79,ENE,63,3.0,9.0,60,0.00,,---,0.04,371.00,VWS V14.01,2013-04-08 22:14:00,
2013-04-08 17:19:00,59.1,45.7,29.80,NNE,28,3.0,9.0,61,0.00,,---,0.04,353.00,VWS V14.01,2013-04-08 22:19:00,
2013-04-08 17:24:00,58.5,46.0,29.80,NNE,33,3.0,9.0,63,0.00,,---,0.04,334.00,VWS V14.01,2013-04-08 22:24:00,
2013-04-08 17:29:00,58.3,45.8,29.80,NE,39,5.0,9.0,63,0.00,,---,0.04,308.00,VWS V14.01,2013-04-08 22:29:00,
2013-04-08 17:34:00,58.2,45.7,29.81,NNE,23,4.0,9.0,63,0.00,,---,0.04,292.00,VWS V14.01,2013-04-08 22:34:00,
2013-04-08 17:39:00,58.0,45.9,29.81,NNE,28,4.0,9.0,64,0.00,,---,0.04,281.00,VWS V14.01,2013-04-08 22:39:00,
2013-04-08 17:44:00,57.3,45.7,29.81,NNE,18,3.0,9.0,65,0.00,,---,0.04,262.00,VWS V14.01,2013-04-08 22:44:00,
2013-04-08 17:49:00,56.9,45.3,29.81,NNE,22,3.0,9.0,65,0.00,,---,0.04,244.00,VWS V14.01,2013-04-08 22:49:00,
2013-04-08 17:54:00,55.9,44.7,29.81,NE,38,1.0,9.0,66,0.00,,---,0.04,232.00,VWS V14.01,2013-04-08 22:54:00,
2013-04-08 18:00:00,55.5,45.1,29.82,NNE,18,2.0,4.0,68,0.00,,---,0.04,207.00,VWS V14.01,2013-04-08 23:00:00,
2013-04-08 18:05:00,56.0,45.2,29.82,NNE,32,3.0,5.0,67,0.00,,---,0.04,190.00,VWS V14.01,2013-04-08 23:05:00,
2013-04-08 18:10:00,56.3,45.5,29.83,NNE,17,3.0,5.0,67,0.00,,---,0.04,165.00,VWS V14.01,2013-04-08 23:10:00,
2013-04-08 18:15:00,55.9,45.5,29.83,NNE,17,3.0,5.0,68,0.00,,---,0.04,120.00,VWS V14.01,2013-04-08 23:15:00,
2013-04-08 18:20:00,55.5,45.5,29.83,NNE,17,2.0,5.0,69,0.00,,---,0.04,91.00,VWS V14.01,2013-04-08 23:20:00,
2013-04-08 18:25:00,55.3,44.9,29.83,NE,42,3.0,5.0,68,0.00,,---,0.04,74.00,VWS V14.01,2013-04-08 23:25:00,
2013-04-08 18:30:00,55.0,44.3,29.83,NE,39,3.0,5.0,67,0.00,,---,0.04,83.00,VWS V14.01,2013-04-08 23:30:00,
2013-04-08 18:35:00,54.3,44.0,29.83,NNE,15,2.0,5.0,68,0.00,,---,0.04,83.00,VWS V14.01,2013-04-08 23:35:00,
2013-04-08 18:40:00,53.9,44.0,29.83,NNE,22,1.0,5.0,69,0.00,,---,0.04,74.00,VWS V14.01,2013-04-08 23:40:00,
2013-04-08 18:45:00,53.8,43.9,29.84,NNE,22,1.0,5.0,69,0.00,,---,0.04,58.00,VWS V14.01,2013-04-08 23:45:00,
2013-04-08 18:50:00,53.4,43.5,29.84,NNE,19,2.0,5.0,69,0.00,,---,0.04,47.00,VWS V14.01,2013-04-08 23:50:00,
2013-04-08 18:55:00,52.9,43.4,29.84,NNE,15,2.0,5.0,70,0.00,,---,0.04,35.00,VWS V14.01,2013-04-08 23:55:00,
2013-04-08 19:00:00,52.4,42.9,29.85,ENE,60,5.0,5.0,70,0.00,,---,0.04,30.00,VWS V14.01,2013-04-09 00:00:00,
2013-04-08 19:05:00,51.6,42.5,29.85,NNE,27,2.0,5.0,71,0.00,,---,0.04,25.00,VWS V14.01,2013-04-09 00:05:00,
2013-04-08 19:10:00,51.0,42.3,29.85,NE,45,3.0,5.0,72,0.00,,---,0.04,21.00,VWS V14.01,2013-04-09 00:10:00,
2013-04-08 19:15:00,50.6,41.9,29.86,NE,44,2.0,5.0,72,0.00,,---,0.04,18.00,VWS V14.01,2013-04-09 00:15:00,
2013-04-08 19:20:00,50.0,41.7,29.86,NNE,30,2.0,5.0,73,0.00,,---,0.04,12.00,VWS V14.01,2013-04-09 00:20:00,
2013-04-08 19:25:00,49.8,41.9,29.86,NNE,30,1.0,5.0,74,0.00,,---,0.04,7.00,VWS V14.01,2013-04-09 00:25:00,
2013-04-08 19:30:00,49.4,41.8,29.87,NNE,28,3.0,5.0,75,0.00,,---,0.04,5.00,VWS V14.01,2013-04-09 00:30:00,
2013-04-08 19:35:00,49.2,41.6,29.87,NNE,28,2.0,5.0,75,0.00,,---,0.04,0.00,VWS V14.01,2013-04-09 00:35:00,
2013-04-08 19:40:00,49.0,41.4,29.88,NNE,28,3.0,5.0,75,0.00,,---,0.04,0.00,VWS V14.01,2013-04-09 00:40:00,
2013-04-08 19:45:00,48.8,41.6,29.89,NE,45,1.0,5.0,76,0.00,,---,0.04,0.00,VWS V14.01,2013-04-09 00:45:00,
2013-04-08 19:50:00,48.6,41.4,29.88,NE,45,2.0,5.0,76,0.00,,---,0.04,0.00,VWS V14.01,2013-04-09 00:50:00,
2013-04-08 19:55:00,48.3,41.4,29.89,NE,42,2.0,5.0,77,0.00,,---,0.04,0.00,VWS V14.01,2013-04-09 00:55:00,
2013-04-08 20:00:00,48.1,41.6,29.89,NE,42,2.0,2.0,78,0.00,,---,0.04,0.00,VWS V14.01,2013-04-09 01:00:00,
2013-04-08 20:05:00,47.6,41.1,29.90,NE,42,2.0,2.0,78,0.00,,---,0.04,0.00,VWS V14.01,2013-04-09 01:05:00,
2013-04-08 20:10:00,47.1,40.9,29.90,NE,42,1.0,3.0,79,0.00,,---,0.04,0.00,VWS V14.01,2013-04-09 01:10:00,
2013-04-08 20:15:00,46.8,41.3,29.90,NE,42,1.0,3.0,81,0.00,,---,0.04,0.00,VWS V14.01,2013-04-09 01:15:00,
2013-04-08 20:20:00,46.7,41.2,29.91,NE,42,0.0,3.0,81,0.00,,---,0.04,0.00,VWS V14.01,2013-04-09 01:20:00,
2013-04-08 20:25:00,46.6,41.1,29.91,NE,42,2.0,3.0,81,0.00,,---,0.04,0.00,VWS V14.01,2013-04-09 01:25:00,
2013-04-08 20:30:00,46.5,41.3,29.91,NE,42,2.0,3.0,82,0.00,,---,0.04,0.00,VWS V14.01,2013-04-09 01:30:00,
2013-04-08 20:35:00,46.3,41.1,29.92,NE,42,3.0,3.0,82,0.00,,---,0.04,0.00,VWS V14.01,2013-04-09 01:35:00,
2013-04-08 20:40:00,46.1,40.9,29.92,NE,42,2.0,3.0,82,0.00,,---,0.04,0.00,VWS V14.01,2013-04-09 01:40:00,
2013-04-08 20:45:00,45.8,40.9,29.92,NE,42,1.0,3.0,83,0.00,,---,0.04,0.00,VWS V14.01,2013-04-09 01:45:00,
2013-04-08 20:50:00,45.6,40.7,29.92,ENE,62,3.0,4.0,83,0.00,,---,0.04,0.00,VWS V14.01,2013-04-09 01:50:00,
2013-04-08 20:55:00,45.5,41.0,29.92,NE,34,4.0,6.0,84,0.00,,---,0.04,0.00,VWS V14.01,2013-04-09 01:55:00,
2013-04-08 21:00:00,45.4,40.9,29.93,NE,55,1.0,2.0,84,0.00,,---,0.04,0.00,VWS V14.01,2013-04-09 02:00:00,
2013-04-08 21:05:00,45.3,40.8,29.93,NE,55,2.0,3.0,84,0.00,,---,0.04,0.00,VWS V14.01,2013-04-09 02:05:00,
2013-04-08 21:10:00,45.1,40.6,29.93,NE,49,4.0,10.0,84,0.00,,---,0.04,0.00,VWS V14.01,2013-04-09 02:10:00,
2013-04-08 21:15:00,44.8,40.3,29.94,NE,43,3.0,10.0,84,0.00,,---,0.04,0.00,VWS V14.01,2013-04-09 02:15:00,
2013-04-08 21:20:00,44.6,40.1,29.94,NE,44,3.0,10.0,84,0.00,,---,0.04,0.00,VWS V14.01,2013-04-09 02:20:00,
2013-04-08 21:25:00,44.5,40.3,29.94,NE,43,3.0,10.0,85,0.00,,---,0.04,0.00,VWS V14.01,2013-04-09 02:25:00,
2013-04-08 21:30:00,44.3,40.1,29.95,NE,43,1.0,10.0,85,0.00,,---,0.04,0.00,VWS V14.01,2013-04-09 02:30:00,
2013-04-08 21:35:00,44.2,40.0,29.95,NE,43,2.0,10.0,85,0.00,,---,0.04,0.00,VWS V14.01,2013-04-09 02:35:00,
2013-04-08 21:40:00,44.0,39.8,29.95,ENE,59,4.0,10.0,85,0.00,,---,0.04,0.00,VWS V14.01,2013-04-09 02:40:00,
2013-04-08 21:45:00,43.8,39.9,29.95,ENE,59,2.0,10.0,86,0.00,,---,0.04,0.00,VWS V14.01,2013-04-09 02:45:00,
2013-04-08 21:50:00,43.6,39.7,29.96,ENE,59,1.0,10.0,86,0.00,,---,0.04,0.00,VWS V14.01,2013-04-09 02:50:00,
2013-04-08 21:55:00,43.5,39.6,29.96,ENE,59,2.0,10.0,86,0.00,,---,0.04,0.00,VWS V14.01,2013-04-09 02:55:00,
2013-04-08 22:00:00,43.4,39.5,29.96,ENE,59,0.0,10.0,86,0.00,,---,0.04,0.00,VWS V14.01,2013-04-09 03:00:00,
2013-04-08 22:05:00,43.2,39.3,29.97,ENE,59,1.0,10.0,86,0.00,,---,0.04,0.00,VWS V14.01,2013-04-09 03:05:00,
2013-04-08 22:10:00,43.1,39.2,29.97,ENE,59,0.0,10.0,86,0.00,,---,0.04,0.00,VWS V14.01,2013-04-09 03:10:00,
2013-04-08 22:15:00,42.9,39.3,29.97,ENE,59,2.0,10.0,87,0.00,,---,0.04,0.00,VWS V14.01,2013-04-09 03:15:00,
2013-04-08 22:20:00,42.7,39.1,29.97,ENE,59,2.0,10.0,87,0.00,,---,0.04,0.00,VWS V14.01,2013-04-09 03:20:00,
2013-04-08 22:25:00,42.5,38.9,29.97,ENE,59,2.0,10.0,87,0.00,,---,0.04,0.00,VWS V14.01,2013-04-09 03:25:00,
2013-04-08 22:30:00,42.3,38.7,29.97,ENE,59,1.0,10.0,87,0.00,,---,0.04,0.00,VWS V14.01,2013-04-09 03:30:00,
2013-04-08 22:35:00,42.2,38.6,29.98,ENE,59,2.0,10.0,87,0.00,,---,0.04,0.00,VWS V14.01,2013-04-09 03:35:00,
2013-04-08 22:40:00,41.9,38.6,29.98,NE,55,3.0,10.0,88,0.00,,---,0.04,0.00,VWS V14.01,2013-04-09 03:40:00,
2013-04-08 22:45:00,41.8,38.5,29.97,NE,55,2.0,10.0,88,0.00,,---,0.04,0.00,VWS V14.01,2013-04-09 03:45:00,
2013-04-08 22:50:00,41.6,38.6,29.98,NE,55,1.0,10.0,89,0.00,,---,0.04,0.00,VWS V14.01,2013-04-09 03:50:00,
2013-04-08 22:55:00,41.5,38.5,29.98,NE,55,2.0,10.0,89,0.00,,---,0.04,0.00,VWS V14.01,2013-04-09 03:55:00,
2013-04-08 23:00:00,41.4,38.4,29.98,NE,55,2.0,2.0,89,0.00,,---,0.04,0.00,VWS V14.01,2013-04-09 04:00:00,
2013-04-08 23:05:00,41.4,38.7,29.98,NE,55,2.0,3.0,90,0.00,,---,0.04,0.00,VWS V14.01,2013-04-09 04:05:00,
2013-04-08 23:10:00,41.3,38.6,29.98,NE,55,1.0,3.0,90,0.00,,---,0.04,0.00,VWS V14.01,2013-04-09 04:10:00,
2013-04-08 23:15:00,41.3,38.6,29.98,NE,55,2.0,3.0,90,0.00,,---,0.04,0.00,VWS V14.01,2013-04-09 04:15:00,
2013-04-08 23:20:00,41.3,38.6,29.98,NE,55,2.0,3.0,90,0.00,,---,0.04,0.00,VWS V14.01,2013-04-09 04:20:00,
2013-04-08 23:25:00,41.2,38.5,29.98,NE,37,2.0,4.0,90,0.00,,---,0.04,0.00,VWS V14.01,2013-04-09 04:25:00,
2013-04-08 23:30:00,41.1,38.4,29.98,NE,37,3.0,4.0,90,0.00,,---,0.04,0.00,VWS V14.01,2013-04-09 04:30:00,
2013-04-08 23:35:00,40.9,38.2,29.98,NE,55,4.0,5.0,90,0.00,,---,0.04,0.00,VWS V14.01,2013-04-09 04:35:00,
2013-04-08 23:40:00,40.6,37.9,29.97,NE,43,3.0,6.0,90,0.00,,---,0.04,0.00,VWS V14.01,2013-04-09 04:40:00,
2013-04-08 23:45:00,40.5,38.1,29.97,NE,34,1.0,6.0,91,0.00,,---,0.04,0.00,VWS V14.01,2013-04-09 04:45:00,
2013-04-08 23:50:00,40.3,37.9,29.97,ENE,59,2.0,8.0,91,0.00,,---,0.04,0.00,VWS V14.01,2013-04-09 04:50:00,
2013-04-08 23:55:00,40.2,37.8,29.97,NE,36,4.0,8.0,91,0.00,,---,0.04,0.00,VWS V14.01,2013-04-09 04:55:00,